createdAt,value
2022-09-25T11:18:42.005Z,3.90
2022-09-25T11:21:22.244Z,5.30
2022-09-25T11:24:09.905Z,4.73
2022-09-25T11:26:44.534Z,3.13
2022-09-25T11:29:17.932Z,3.63
2022-09-25T11:31:53.444Z,5.40
2022-09-25T11:34:41.116Z,4.33
2022-09-25T11:37:21.076Z,3.87
2022-09-25T11:40:16.209Z,5.23
2022-09-25T11:42:50.966Z,3.43
2022-09-25T11:45:25.367Z,1.63
2022-09-25T11:48:00.602Z,3.17
2022-09-25T11:50:41.550Z,3.63
2022-09-25T11:53:20.959Z,2.40
2022-09-25T11:56:06.978Z,2.93
2022-09-25T11:58:54.066Z,2.47
2022-09-25T12:01:34.426Z,2.40
2022-09-25T12:04:33.318Z,5.37
2022-09-25T12:07:30.093Z,3.33
2022-09-25T12:10:13.095Z,4.03
2022-09-25T12:12:51.211Z,4.47
2022-09-25T12:15:26.753Z,6.47
2022-09-25T12:18:08.149Z,3.53
2022-09-25T12:20:49.718Z,4.00
2022-09-25T12:23:30.316Z,3.63
2022-09-25T12:26:19.335Z,3.47
2022-09-25T12:29:07.365Z,2.53
2022-09-25T12:31:43.919Z,3.87
2022-09-25T12:34:22.058Z,3.70
2022-09-25T12:36:54.973Z,3.13
2022-09-25T12:39:35.782Z,5.50
2022-09-25T12:42:13.201Z,1.40
2022-09-25T12:44:48.649Z,2.43
2022-09-25T12:47:24.281Z,1.87
2022-09-25T12:50:02.061Z,4.13
2022-09-25T12:52:34.869Z,2.47
2022-09-25T12:55:10.711Z,2.70
2022-09-25T12:57:46.356Z,2.23
2022-09-25T13:00:21.603Z,1.53
2022-09-25T13:02:58.128Z,5.20
2022-09-25T13:05:34.284Z,4.53
2022-09-25T13:08:17.615Z,2.90
2022-09-25T13:10:55.042Z,4.77
2022-09-25T13:13:27.377Z,3.93
2022-09-25T13:15:58.934Z,3.47
2022-09-25T13:18:30.899Z,4.10
2022-09-25T13:21:01.855Z,1.07
2022-09-25T13:23:38.706Z,3.00
2022-09-25T13:26:17.043Z,1.90
2022-09-25T13:28:54.261Z,1.00
2022-09-25T13:31:28.406Z,3.30
2022-09-25T13:34:05.215Z,3.00
2022-09-25T13:36:39.812Z,2.63
2022-09-25T13:39:38.715Z,2.60
2022-09-25T13:42:18.130Z,1.47
2022-09-25T13:45:07.964Z,2.77
2022-09-25T13:48:03.037Z,3.63
2022-09-25T13:50:47.058Z,2.47
2022-09-25T13:53:50.826Z,1.63
2022-09-25T13:56:31.013Z,3.73
2022-09-25T13:59:41.679Z,2.57
2022-09-25T14:02:48.635Z,1.80
2022-09-25T14:05:21.409Z,1.37
2022-09-25T14:07:55.150Z,6.67
2022-09-25T14:10:29.518Z,3.20
2022-09-25T14:13:01.050Z,2.93
2022-09-25T14:15:39.323Z,2.93
2022-09-25T14:18:18.180Z,6.27
2022-09-25T14:20:50.253Z,3.20
2022-09-25T14:23:27.551Z,3.43
2022-09-25T14:26:01.157Z,4.57
2022-09-25T14:28:32.248Z,3.40
2022-09-25T14:31:28.610Z,1.30
2022-09-25T14:34:28.565Z,3.17
2022-09-25T14:37:05.474Z,2.50
2022-09-25T14:39:42.601Z,2.37
2022-09-25T14:42:54.820Z,1.70
2022-09-25T14:45:45.312Z,3.33
2022-09-25T14:48:19.324Z,3.60
2022-09-25T14:50:52.677Z,1.80
2022-09-25T14:53:30.930Z,1.57
2022-09-25T14:56:02.422Z,4.20
2022-09-25T14:58:34.648Z,1.63
2022-09-25T15:01:14.298Z,2.60
2022-09-25T15:03:50.449Z,1.53
2022-09-25T15:06:28.719Z,3.03
2022-09-25T15:08:59.643Z,2.67
2022-09-25T15:11:30.351Z,3.37
2022-09-25T15:14:12.514Z,3.00
2022-09-25T15:16:59.334Z,1.97
2022-09-25T15:19:34.726Z,3.27
2022-09-25T15:22:09.623Z,3.10
2022-09-25T15:24:41.827Z,2.07
2022-09-25T15:27:16.489Z,4.83
2022-09-25T15:29:48.023Z,3.77
2022-09-25T15:32:20.712Z,3.60
2022-09-25T15:34:51.748Z,1.87
2022-09-25T15:37:28.323Z,1.07
2022-09-25T15:39:58.135Z,2.87
2022-09-25T15:42:28.085Z,1.53
2022-09-25T15:44:59.142Z,3.03
2022-09-25T15:47:53.524Z,2.90
2022-09-25T15:50:27.948Z,4.97
2022-09-25T15:53:00.657Z,3.07
2022-09-25T15:55:34.701Z,2.97
2022-09-25T15:58:17.152Z,3.83
2022-09-25T16:01:16.394Z,3.33
2022-09-25T16:04:07.743Z,4.53
2022-09-25T16:06:44.263Z,3.57
2022-09-25T16:09:33.002Z,4.13
2022-09-25T16:12:23.102Z,2.63
2022-09-25T16:14:52.691Z,5.63
2022-09-25T16:17:27.156Z,3.30
2022-09-25T16:20:09.525Z,2.63
2022-09-25T16:22:51.599Z,3.53
2022-09-25T16:25:26.075Z,2.50
2022-09-25T16:27:57.625Z,4.47
2022-09-25T16:30:29.848Z,1.57
2022-09-25T16:33:06.252Z,2.13
2022-09-25T16:36:04.508Z,5.13
2022-09-25T16:38:32.338Z,1.73
2022-09-25T16:41:06.347Z,2.37
2022-09-25T16:43:36.567Z,1.47
2022-09-25T16:46:14.790Z,2.10
2022-09-25T16:48:44.381Z,1.73
2022-09-25T16:51:19.736Z,3.00
2022-09-25T16:53:51.060Z,4.07
2022-09-25T16:56:23.382Z,2.60
2022-09-25T16:58:53.105Z,4.13
2022-09-25T17:01:23.992Z,2.67
2022-09-25T17:03:55.885Z,1.70
2022-09-25T17:06:26.590Z,2.10
2022-09-25T17:08:57.783Z,2.20
2022-09-25T17:11:27.121Z,2.60
2022-09-25T17:13:56.370Z,3.83
2022-09-25T17:16:26.868Z,3.23
2022-09-25T17:19:01.238Z,4.93
2022-09-25T17:21:30.792Z,3.30
2022-09-25T17:24:01.514Z,4.07
2022-09-25T17:26:31.086Z,3.03
2022-09-25T17:29:00.401Z,3.03
2022-09-25T17:31:30.083Z,3.20
2022-09-25T17:33:59.602Z,2.63
2022-09-25T17:36:28.690Z,3.97
2022-09-25T17:38:58.161Z,4.23
2022-09-25T17:41:34.233Z,2.10
2022-09-25T17:44:06.978Z,5.77
2022-09-25T17:46:36.672Z,2.87
2022-09-25T17:49:06.496Z,2.47
2022-09-25T17:51:38.361Z,1.73
2022-09-25T17:54:08.250Z,2.63
2022-09-25T17:56:40.232Z,1.90
2022-09-25T17:59:09.677Z,4.20
2022-09-25T18:01:40.572Z,2.83
2022-09-25T18:04:20.882Z,2.43
2022-09-25T18:06:51.750Z,3.57
2022-09-25T18:09:21.628Z,3.13
2022-09-25T18:11:53.927Z,1.87
2022-09-25T18:14:24.065Z,3.53
2022-09-25T18:16:54.045Z,2.07
2022-09-25T18:19:41.141Z,2.57
2022-09-25T18:22:26.123Z,2.50
2022-09-25T18:24:57.249Z,2.30
2022-09-25T18:27:32.865Z,2.23
2022-09-25T18:30:05.946Z,2.00
2022-09-25T18:32:36.829Z,3.20
2022-09-25T18:48:44.767Z,1.37
2022-09-25T18:51:14.585Z,3.13
2022-09-25T18:53:44.536Z,2.87
2022-09-25T18:56:13.931Z,2.67
2022-09-25T18:58:43.803Z,2.03
2022-09-25T19:01:14.548Z,6.43
2022-09-25T19:03:45.697Z,4.67
2022-09-25T19:06:18.041Z,3.03
2022-09-25T19:08:54.370Z,3.57
2022-09-25T19:11:24.359Z,1.60
2022-09-25T19:13:53.726Z,3.23
2022-09-25T19:16:24.004Z,2.93
2022-09-25T19:18:54.763Z,2.40
2022-09-25T19:21:25.089Z,3.43
2022-09-25T19:23:54.294Z,1.80
2022-09-25T19:26:26.545Z,4.00
2022-09-25T19:28:55.850Z,1.30
2022-09-25T19:31:27.580Z,3.50
2022-09-25T19:34:01.276Z,2.17
2022-09-25T19:36:32.411Z,2.43
2022-09-25T19:39:03.305Z,5.87
2022-09-25T19:41:38.717Z,4.30
2022-09-25T19:44:13.557Z,2.00
2022-09-25T19:46:46.469Z,2.27
2022-09-25T19:49:19.106Z,4.83
2022-09-25T19:51:49.266Z,3.93
2022-09-25T19:54:20.019Z,3.33
2022-09-25T19:56:49.619Z,3.00
2022-09-25T19:59:19.346Z,3.43
2022-09-25T20:01:48.561Z,4.50
2022-09-25T20:04:19.753Z,3.97
2022-09-25T20:06:49.508Z,2.23
2022-09-25T20:09:18.662Z,3.87
2022-09-25T20:11:48.518Z,4.73
2022-09-25T20:14:25.494Z,4.23
2022-09-25T20:16:57.090Z,6.13
2022-09-25T20:19:32.566Z,6.53
2022-09-25T20:22:02.249Z,6.50
2022-09-25T20:24:31.561Z,6.73
2022-09-25T20:27:01.075Z,6.97
2022-09-25T20:29:32.520Z,8.93
2022-09-25T20:32:02.927Z,7.77
2022-09-25T20:34:33.595Z,9.67
2022-09-25T20:37:04.108Z,6.13
2022-09-25T20:39:33.452Z,5.00
2022-09-25T20:42:02.970Z,7.00
2022-09-25T20:44:32.703Z,8.20
2022-09-25T20:47:05.157Z,5.07
2022-09-25T20:49:37.249Z,5.70
2022-09-25T20:52:07.322Z,6.27
2022-09-25T20:54:36.664Z,8.70
2022-09-25T20:57:06.185Z,7.93
2022-09-25T20:59:35.292Z,5.60
2022-09-25T21:02:05.576Z,5.40
2022-09-25T21:04:36.386Z,4.93
2022-09-25T21:07:05.744Z,5.23
2022-09-25T21:09:34.643Z,3.50
2022-09-25T21:12:06.173Z,3.67
2022-09-25T21:14:35.551Z,6.00
2022-09-25T21:17:05.044Z,4.70
2022-09-25T21:19:35.786Z,5.10
2022-09-25T21:22:06.936Z,8.10
2022-09-25T21:24:36.195Z,8.30
2022-09-25T21:27:05.603Z,10.67
2022-09-25T21:29:35.250Z,12.33
2022-09-25T21:32:04.986Z,14.63
2022-09-25T21:34:35.373Z,10.07
2022-09-25T21:37:05.483Z,9.33
2022-09-25T21:39:34.365Z,8.77
2022-09-25T21:42:05.134Z,9.33
2022-09-25T21:44:34.165Z,9.97
2022-09-25T21:47:03.636Z,9.43
2022-09-25T21:49:33.020Z,10.23
2022-09-25T21:52:04.252Z,6.47
2022-09-25T21:54:33.360Z,7.20
2022-09-25T21:57:02.257Z,5.57
2022-09-25T21:59:33.412Z,7.20
2022-09-25T22:02:02.349Z,5.43
2022-09-25T22:04:31.320Z,5.50
2022-09-25T22:07:00.165Z,5.93
2022-09-25T22:09:31.091Z,6.80
2022-09-25T22:12:00.040Z,8.80
2022-09-25T22:14:29.024Z,6.87
2022-09-25T22:16:58.122Z,5.93
2022-09-25T22:19:29.163Z,8.83
2022-09-25T22:22:00.892Z,8.27
2022-09-25T22:24:31.527Z,7.43
2022-09-25T22:27:00.334Z,8.77
2022-09-25T22:29:29.156Z,10.53
2022-09-25T22:31:57.897Z,9.10
2022-09-25T22:34:28.509Z,8.20
2022-09-25T22:37:00.250Z,7.63
2022-09-25T22:39:31.624Z,7.27
2022-09-25T22:42:01.006Z,9.33
2022-09-25T22:44:29.778Z,11.33
2022-09-25T22:47:02.398Z,8.43
2022-09-25T22:49:32.629Z,11.97
2022-09-25T22:52:02.536Z,11.97
2022-09-25T22:54:32.867Z,12.67
2022-09-25T22:57:01.867Z,16.00
2022-09-25T22:59:30.681Z,13.60
2022-09-25T23:01:59.449Z,8.07
2022-09-25T23:04:29.529Z,8.80
2022-09-25T23:06:58.246Z,7.83
2022-09-25T23:09:27.230Z,7.80
2022-09-25T23:11:58.704Z,7.80
2022-09-25T23:14:30.294Z,9.03
2022-09-25T23:17:00.648Z,9.77
2022-09-25T23:19:29.517Z,8.83
2022-09-25T23:21:58.579Z,7.90
2022-09-25T23:24:27.458Z,9.73
2022-09-25T23:26:57.539Z,7.07
2022-09-25T23:29:26.130Z,8.93
2022-09-25T23:31:54.941Z,7.03
2022-09-25T23:34:23.846Z,7.07
2022-09-25T23:36:52.781Z,7.40
2022-09-25T23:39:22.871Z,7.57
2022-09-25T23:41:51.522Z,7.43
2022-09-25T23:44:21.648Z,8.73
2022-09-25T23:46:50.357Z,9.00
2022-09-25T23:49:19.199Z,7.43
2022-09-25T23:51:48.293Z,6.67
2022-09-25T23:54:18.545Z,6.80
2022-09-25T23:56:47.195Z,8.53
2022-09-25T23:59:15.953Z,6.77
